Time;durP1;ratioP1;P1;durP2;ratioP2;P2;SDS_P1;SDS_P2;PMS_P1;PMS_P2;Temp;Humidity;BMP_temperature;BMP_pressure;BME280_temperature;BME280_humidity;BME280_pressure;Samples;Min_cycle;Max_cycle;Signal;HPM_P1;HPM_P2
2021/12/16 00:09:50;;;;;;;3.70;2.53;;;;;;;;;;5116423;28;20246;-84
2021/12/16 00:31:54;;;;;;;2.00;1.80;;;;;;;;;;5116304;28;20293;-84
2021/12/16 00:34:24;;;;;;;10.20;3.57;;;;;;;;;;5115258;28;20283;-84
2021/12/16 00:36:53;;;;;;;3.90;2.63;;;;;;;;;;5115998;28;20307;-84
2021/12/16 00:39:22;;;;;;;6.27;3.00;;;;;;;;;;5116337;28;20232;-84
2021/12/16 00:41:58;;;;;;;5.27;2.93;;;;;;;;;;5116351;28;20228;-84
2021/12/16 00:45:00;;;;;;;7.07;3.53;;;;;;;;;;5116148;28;20220;-84
2021/12/16 00:47:31;;;;;;;5.93;3.63;;;;;;;;;;5115647;28;20255;-84
2021/12/16 00:50:18;;;;;;;8.23;3.20;;;;;;;;;;5115985;28;20286;-84
2021/12/16 00:55:42;;;;;;;1.50;1.40;;;;;;;;;;5116063;28;20226;-84
2021/12/16 00:58:12;;;;;;;5.57;3.03;;;;;;;;;;5115683;27;20295;-84
2021/12/16 01:00:43;;;;;;;7.97;4.60;;;;;;;;;;5115789;28;20235;-84
2021/12/16 01:03:21;;;;;;;5.80;2.47;;;;;;;;;;5115589;28;20226;-84
2021/12/16 01:06:08;;;;;;;7.17;4.17;;;;;;;;;;5115468;28;20216;-84
2021/12/16 01:34:04;;;;;;;6.53;4.77;;;;;;;;;;5115220;28;20195;-84
2021/12/16 01:39:56;;;;;;;2.30;2.10;;;;;;;;;;5114956;28;20187;-84
2021/12/16 01:42:36;;;;;;;5.33;3.00;;;;;;;;;;5114891;28;20250;-84
2021/12/16 01:48:14;;;;;;;2.50;2.33;;;;;;;;;;5114991;28;20207;-84
2021/12/16 01:50:49;;;;;;;3.93;2.67;;;;;;;;;;5114781;28;20197;-84
2021/12/16 01:53:38;;;;;;;11.23;5.20;;;;;;;;;;5114489;28;20246;-84
2021/12/16 01:56:20;;;;;;;8.20;3.70;;;;;;;;;;5114669;28;20224;-84
2021/12/16 01:58:50;;;;;;;8.90;6.60;;;;;;;;;;5114597;28;20260;-84
2021/12/16 02:01:27;;;;;;;7.47;5.40;;;;;;;;;;5114747;28;20199;-84
2021/12/16 02:04:01;;;;;;;4.73;3.13;;;;;;;;;;5114642;28;20215;-84
2021/12/16 02:06:45;;;;;;;12.87;6.77;;;;;;;;;;5114721;28;20251;-84
2021/12/16 02:09:22;;;;;;;5.87;3.90;;;;;;;;;;5114466;28;20252;-84
2021/12/16 02:11:57;;;;;;;7.10;4.17;;;;;;;;;;5114357;28;20246;-84
2021/12/16 02:28:32;;;;;;;1.97;1.87;;;;;;;;;;5114271;28;20271;-84
2021/12/16 02:36:30;;;;;;;1.37;1.27;;;;;;;;;;5114516;28;20202;-84
2021/12/16 02:39:05;;;;;;;2.60;2.40;;;;;;;;;;5114464;28;20230;-84
2021/12/16 02:41:34;;;;;;;1.23;1.23;;;;;;;;;;5114528;28;20257;-84
2021/12/16 02:49:39;;;;;;;5.50;3.10;;;;;;;;;;5114335;28;20231;-84
2021/12/16 02:52:08;;;;;;;1.40;1.40;;;;;;;;;;5114062;28;20228;-84
2021/12/16 02:54:38;;;;;;;3.57;3.37;;;;;;;;;;5113570;28;20231;-84
2021/12/16 02:57:07;;;;;;;7.67;5.17;;;;;;;;;;5114527;28;20196;-84
2021/12/16 02:59:36;;;;;;;1.83;1.73;;;;;;;;;;5118003;28;20204;-84
2021/12/16 03:02:08;;;;;;;9.17;6.63;;;;;;;;;;5117649;28;20253;-85
2021/12/16 03:04:38;;;;;;;2.63;2.23;;;;;;;;;;5118212;28;20230;-85
2021/12/16 03:07:09;;;;;;;13.40;6.33;;;;;;;;;;5118204;28;20228;-84
2021/12/16 03:10:06;;;;;;;2.80;2.53;;;;;;;;;;5118157;28;20211;-84
2021/12/16 03:12:55;;;;;;;6.23;4.27;;;;;;;;;;5118083;28;20241;-84
2021/12/16 03:15:35;;;;;;;8.00;6.00;;;;;;;;;;5117860;28;20224;-84
2021/12/16 03:18:11;;;;;;;1.10;1.10;;;;;;;;;;5117518;28;20243;-84
2021/12/16 03:20:44;;;;;;;4.70;4.20;;;;;;;;;;5117667;28;20217;-84
2021/12/16 03:23:29;;;;;;;4.83;2.93;;;;;;;;;;5117547;28;20253;-84
2021/12/16 03:26:36;;;;;;;1.83;1.70;;;;;;;;;;5117572;28;20291;-84
2021/12/16 03:29:32;;;;;;;5.07;3.80;;;;;;;;;;5117098;28;20252;-84
2021/12/16 03:32:28;;;;;;;1.90;1.77;;;;;;;;;;5116997;28;20230;-84
2021/12/16 03:35:01;;;;;;;2.03;1.83;;;;;;;;;;5117194;28;20195;-84
2021/12/16 03:37:30;;;;;;;3.03;2.30;;;;;;;;;;5117417;28;20194;-84
2021/12/16 03:40:00;;;;;;;2.17;1.70;;;;;;;;;;5117310;28;20204;-84
2021/12/16 03:42:32;;;;;;;1.60;1.50;;;;;;;;;;5117416;28;20243;-84
2021/12/16 03:45:06;;;;;;;7.57;4.43;;;;;;;;;;5117242;28;20295;-84
2021/12/16 03:47:40;;;;;;;1.33;1.27;;;;;;;;;;5117135;27;20264;-84
2021/12/16 03:50:10;;;;;;;4.50;4.03;;;;;;;;;;5117341;28;20197;-84
2021/12/16 03:52:39;;;;;;;4.03;3.40;;;;;;;;;;5117193;28;20204;-84
2021/12/16 03:55:09;;;;;;;0.70;0.70;;;;;;;;;;5116650;28;20224;-84
2021/12/16 03:57:40;;;;;;;5.53;2.80;;;;;;;;;;5116640;28;20233;-84
2021/12/16 04:00:10;;;;;;;1.37;1.37;;;;;;;;;;5116829;28;20202;-84
2021/12/16 04:02:39;;;;;;;6.47;4.73;;;;;;;;;;5116623;28;20201;-84
2021/12/16 04:05:08;;;;;;;9.27;3.60;;;;;;;;;;5116473;28;20209;-84
2021/12/16 04:07:37;;;;;;;5.63;5.20;;;;;;;;;;5116720;28;20204;-84
2021/12/16 04:10:07;;;;;;;2.93;2.00;;;;;;;;;;5115168;28;20260;-84
2021/12/16 04:12:36;;;;;;;7.27;3.33;;;;;;;;;;5116643;28;20317;-84
2021/12/16 04:15:07;;;;;;;3.87;2.40;;;;;;;;;;5116535;28;20262;-85
2021/12/16 04:17:36;;;;;;;4.77;3.57;;;;;;;;;;5116770;28;20279;-84
2021/12/16 04:20:06;;;;;;;1.13;1.13;;;;;;;;;;5116309;28;20295;-84
2021/12/16 04:22:38;;;;;;;0.80;0.80;;;;;;;;;;5116814;28;20252;-84
2021/12/16 04:25:10;;;;;;;1.30;1.23;;;;;;;;;;5116259;28;20235;-84
2021/12/16 04:27:39;;;;;;;5.87;2.33;;;;;;;;;;5116575;28;20237;-84
2021/12/16 04:30:10;;;;;;;0.63;0.63;;;;;;;;;;5116414;28;20288;-84
2021/12/16 04:32:38;;;;;;;4.43;4.03;;;;;;;;;;5116621;28;20269;-84
2021/12/16 04:35:08;;;;;;;4.30;1.47;;;;;;;;;;5116170;28;20220;-84
2021/12/16 04:37:36;;;;;;;1.60;1.53;;;;;;;;;;5116258;28;20203;-84
2021/12/16 04:40:07;;;;;;;1.43;1.33;;;;;;;;;;5116490;28;20247;-84
2021/12/16 04:42:36;;;;;;;3.83;3.23;;;;;;;;;;5116155;28;20184;-84
2021/12/16 04:45:05;;;;;;;2.40;2.20;;;;;;;;;;5115946;28;20286;-85
2021/12/16 04:47:37;;;;;;;1.13;1.13;;;;;;;;;;5116105;28;20188;-84
2021/12/16 04:50:06;;;;;;;4.53;2.97;;;;;;;;;;5116537;28;20280;-84
2021/12/16 04:52:34;;;;;;;2.03;1.83;;;;;;;;;;5115626;28;20403;-84
2021/12/16 04:55:03;;;;;;;8.80;3.90;;;;;;;;;;5115525;28;20232;-84
2021/12/16 04:57:31;;;;;;;10.50;2.70;;;;;;;;;;5116001;28;20196;-84
2021/12/16 05:00:00;;;;;;;0.93;0.93;;;;;;;;;;5115719;28;20227;-84
2021/12/16 05:02:28;;;;;;;3.53;2.97;;;;;;;;;;5115957;28;20222;-84
2021/12/16 05:04:58;;;;;;;2.23;2.00;;;;;;;;;;5115520;28;20315;-84
2021/12/16 05:07:27;;;;;;;3.20;1.97;;;;;;;;;;5115687;28;20200;-84
2021/12/16 05:10:04;;;;;;;2.90;1.27;;;;;;;;;;5115478;28;20207;-84
2021/12/16 05:12:36;;;;;;;1.67;1.57;;;;;;;;;;5115592;28;20220;-84
2021/12/16 05:15:05;;;;;;;2.30;2.07;;;;;;;;;;5115401;28;20272;-84
2021/12/16 05:17:38;;;;;;;8.33;3.33;;;;;;;;;;5115545;28;20225;-84
2021/12/16 05:20:11;;;;;;;16.13;7.83;;;;;;;;;;5115126;28;20206;-84
2021/12/16 05:25:37;;;;;;;6.53;4.13;;;;;;;;;;5115192;28;20223;-84
2021/12/16 05:28:06;;;;;;;1.43;1.33;;;;;;;;;;5115447;28;20203;-84
2021/12/16 05:30:35;;;;;;;1.53;1.43;;;;;;;;;;5115114;28;20207;-84
2021/12/16 05:33:04;;;;;;;0.80;0.80;;;;;;;;;;5114896;28;20270;-84
2021/12/16 05:35:34;;;;;;;4.97;3.00;;;;;;;;;;5114624;28;20247;-84
2021/12/16 05:38:02;;;;;;;11.93;6.50;;;;;;;;;;5115175;28;20210;-84
2021/12/16 05:40:31;;;;;;;0.70;0.70;;;;;;;;;;5115194;28;20245;-84
2021/12/16 05:43:01;;;;;;;2.70;2.50;;;;;;;;;;5115364;28;20226;-84
2021/12/16 05:45:30;;;;;;;4.03;3.13;;;;;;;;;;5115177;28;20208;-84
2021/12/16 05:48:00;;;;;;;0.70;0.70;;;;;;;;;;5114902;28;20233;-85
2021/12/16 05:50:29;;;;;;;2.17;2.13;;;;;;;;;;5114745;28;20206;-84
2021/12/16 05:52:59;;;;;;;1.33;1.23;;;;;;;;;;5114754;28;20354;-84
2021/12/16 05:55:28;;;;;;;6.17;3.83;;;;;;;;;;5114589;28;20227;-84
2021/12/16 05:57:57;;;;;;;1.63;1.53;;;;;;;;;;5114677;28;20248;-84
2021/12/16 06:00:27;;;;;;;2.03;1.87;;;;;;;;;;5114661;28;20235;-84
2021/12/16 06:02:55;;;;;;;6.67;2.40;;;;;;;;;;5114593;27;20226;-84
2021/12/16 06:05:24;;;;;;;1.13;1.13;;;;;;;;;;5114459;28;20195;-84
2021/12/16 06:07:53;;;;;;;1.03;1.03;;;;;;;;;;5114696;28;20235;-84
2021/12/16 06:13:09;;;;;;;6.13;2.80;;;;;;;;;;5114501;28;20196;-84
2021/12/16 06:15:54;;;;;;;12.83;12.17;;;;;;;;;;5114506;28;20208;-84
2021/12/16 06:26:53;;;;;;;2.43;1.83;;;;;;;;;;5114447;28;20257;-84
2021/12/16 06:29:22;;;;;;;0.77;0.77;;;;;;;;;;5114241;28;20227;-84
2021/12/16 06:31:51;;;;;;;1.17;1.17;;;;;;;;;;5114759;28;20280;-84
2021/12/16 06:34:22;;;;;;;0.60;0.60;;;;;;;;;;5118709;27;20229;-84
2021/12/16 06:36:50;;;;;;;2.60;2.40;;;;;;;;;;5118651;28;20216;-84
2021/12/16 06:39:18;;;;;;;2.87;2.67;;;;;;;;;;5118354;28;20218;-84
2021/12/16 06:41:48;;;;;;;0.73;0.73;;;;;;;;;;5118604;28;20227;-84
2021/12/16 06:44:22;;;;;;;4.10;3.67;;;;;;;;;;5118298;28;20193;-84
2021/12/16 06:46:53;;;;;;;4.70;4.53;;;;;;;;;;5118510;28;20217;-83
2021/12/16 06:49:23;;;;;;;8.87;4.83;;;;;;;;;;5118612;28;20200;-83
2021/12/16 06:51:55;;;;;;;1.13;1.10;;;;;;;;;;5118189;28;20252;-83
2021/12/16 06:54:28;;;;;;;0.60;0.60;;;;;;;;;;5117893;28;20302;-83
2021/12/16 06:57:12;;;;;;;0.77;0.77;;;;;;;;;;5118457;28;20188;-84
2021/12/16 06:59:51;;;;;;;0.90;0.90;;;;;;;;;;5118023;28;20289;-84
2021/12/16 07:02:47;;;;;;;1.00;1.00;;;;;;;;;;5117892;28;20190;-83
2021/12/16 07:05:17;;;;;;;0.60;0.60;;;;;;;;;;5117818;28;20192;-83
2021/12/16 07:07:45;;;;;;;2.47;2.10;;;;;;;;;;5117942;28;20198;-84
2021/12/16 07:10:15;;;;;;;2.37;1.67;;;;;;;;;;5117718;28;20290;-83
2021/12/16 07:12:48;;;;;;;2.83;2.47;;;;;;;;;;5117780;28;20206;-84
2021/12/16 07:15:18;;;;;;;9.30;1.83;;;;;;;;;;5117747;28;20299;-84
2021/12/16 07:17:46;;;;;;;0.80;0.80;;;;;;;;;;5117612;28;20234;-84
2021/12/16 07:20:16;;;;;;;0.73;0.73;;;;;;;;;;5117664;28;20234;-83
2021/12/16 07:22:47;;;;;;;0.87;0.87;;;;;;;;;;5117377;28;20238;-83
2021/12/16 07:25:16;;;;;;;0.80;0.80;;;;;;;;;;5117500;28;20195;-84
2021/12/16 07:27:46;;;;;;;0.60;0.60;;;;;;;;;;5117140;28;20218;-83
2021/12/16 07:30:16;;;;;;;2.63;2.53;;;;;;;;;;5117396;28;20203;-84
2021/12/16 07:32:44;;;;;;;0.60;0.60;;;;;;;;;;5117836;28;20208;-81
2021/12/16 07:35:15;;;;;;;0.70;0.70;;;;;;;;;;5117241;28;20249;-80
2021/12/16 07:37:43;;;;;;;0.60;0.60;;;;;;;;;;5117431;28;20183;-80
2021/12/16 07:40:15;;;;;;;2.10;2.10;;;;;;;;;;5117271;28;20200;-80
2021/12/16 07:42:59;;;;;;;0.60;0.60;;;;;;;;;;5117049;28;20198;-80
2021/12/16 07:45:28;;;;;;;0.60;0.60;;;;;;;;;;5117386;28;20244;-80
2021/12/16 07:47:57;;;;;;;0.70;0.70;;;;;;;;;;5116927;28;20219;-80
2021/12/16 07:50:28;;;;;;;0.60;0.60;;;;;;;;;;5117050;28;20186;-80
2021/12/16 07:52:56;;;;;;;1.10;1.10;;;;;;;;;;5116785;28;20202;-80
2021/12/16 07:55:26;;;;;;;0.60;0.60;;;;;;;;;;5117087;28;20226;-80
2021/12/16 07:57:56;;;;;;;0.60;0.60;;;;;;;;;;5117409;28;20221;-79
2021/12/16 08:00:28;;;;;;;0.67;0.67;;;;;;;;;;5117105;28;20232;-80
2021/12/16 08:02:56;;;;;;;0.60;0.60;;;;;;;;;;5117217;28;20230;-80
2021/12/16 08:05:29;;;;;;;1.70;1.43;;;;;;;;;;5117149;28;20257;-80
2021/12/16 08:07:57;;;;;;;1.07;1.07;;;;;;;;;;5116894;28;20199;-79
2021/12/16 08:10:29;;;;;;;0.53;0.53;;;;;;;;;;5116996;28;20233;-80
2021/12/16 08:12:59;;;;;;;0.60;0.60;;;;;;;;;;5116814;28;20218;-80
2021/12/16 08:15:27;;;;;;;0.60;0.60;;;;;;;;;;5116754;28;20265;-79
2021/12/16 08:17:58;;;;;;;0.70;0.70;;;;;;;;;;5116138;28;20204;-80
2021/12/16 08:20:27;;;;;;;0.60;0.60;;;;;;;;;;5105978;28;20203;-79
2021/12/16 08:22:56;;;;;;;0.90;0.90;;;;;;;;;;5106814;28;20237;-80
2021/12/16 08:25:26;;;;;;;1.07;1.07;;;;;;;;;;5108965;28;20192;-79
2021/12/16 08:27:55;;;;;;;1.17;1.17;;;;;;;;;;5102521;28;20222;-80
2021/12/16 08:30:27;;;;;;;0.70;0.70;;;;;;;;;;5109128;27;20291;-80
2021/12/16 08:32:59;;;;;;;2.17;2.07;;;;;;;;;;5106227;28;20220;-81
2021/12/16 08:35:28;;;;;;;0.60;0.60;;;;;;;;;;5106932;28;20307;-80
2021/12/16 08:37:57;;;;;;;0.50;0.50;;;;;;;;;;5098309;28;20311;-80
2021/12/16 08:40:25;;;;;;;0.63;0.63;;;;;;;;;;5102095;28;20214;-80
2021/12/16 08:42:54;;;;;;;0.60;0.60;;;;;;;;;;5106100;28;20239;-80
2021/12/16 08:45:26;;;;;;;0.60;0.60;;;;;;;;;;5107345;28;20204;-80
2021/12/16 08:47:57;;;;;;;0.60;0.60;;;;;;;;;;5100285;28;20197;-80
2021/12/16 08:50:27;;;;;;;1.07;1.07;;;;;;;;;;5106819;28;20205;-81
2021/12/16 08:52:55;;;;;;;0.60;0.60;;;;;;;;;;5106766;28;20240;-80
2021/12/16 08:55:24;;;;;;;0.60;0.60;;;;;;;;;;5112846;28;20230;-81
2021/12/16 08:57:55;;;;;;;5.60;4.00;;;;;;;;;;5097935;28;20208;-79
2021/12/16 09:00:25;;;;;;;0.70;0.70;;;;;;;;;;5105683;28;20216;-80
2021/12/16 09:02:54;;;;;;;0.60;0.60;;;;;;;;;;5098887;27;20216;-80
2021/12/16 09:05:24;;;;;;;3.90;3.70;;;;;;;;;;5099019;28;20269;-80
2021/12/16 09:07:53;;;;;;;0.60;0.60;;;;;;;;;;5094661;28;20205;-79
2021/12/16 09:10:25;;;;;;;3.53;3.33;;;;;;;;;;5105386;28;20215;-81
2021/12/16 09:13:02;;;;;;;1.40;1.40;;;;;;;;;;5103818;28;20196;-81
2021/12/16 09:15:33;;;;;;;0.60;0.60;;;;;;;;;;5101020;28;20231;-81
2021/12/16 09:18:03;;;;;;;0.87;0.87;;;;;;;;;;5104711;28;20307;-81
2021/12/16 09:20:34;;;;;;;0.70;0.70;;;;;;;;;;5101812;28;20205;-81
2021/12/16 09:23:03;;;;;;;1.37;1.27;;;;;;;;;;5102774;28;20213;-82
2021/12/16 09:25:32;;;;;;;0.63;0.63;;;;;;;;;;5101129;28;20269;-83
2021/12/16 09:28:00;;;;;;;0.60;0.60;;;;;;;;;;5097725;28;20230;-82
2021/12/16 09:30:30;;;;;;;1.10;1.10;;;;;;;;;;5100506;28;20201;-81
2021/12/16 09:33:01;;;;;;;0.63;0.63;;;;;;;;;;5100059;28;20220;-81
2021/12/16 09:35:34;;;;;;;0.60;0.60;;;;;;;;;;5100597;28;20245;-82
2021/12/16 09:38:04;;;;;;;0.60;0.60;;;;;;;;;;5099848;28;20212;-82
2021/12/16 09:40:38;;;;;;;1.10;1.07;;;;;;;;;;5104176;28;20227;-80
2021/12/16 09:43:09;;;;;;;0.60;0.60;;;;;;;;;;5108508;28;20249;-81
2021/12/16 09:45:51;;;;;;;0.70;0.70;;;;;;;;;;5103857;28;20247;-81
2021/12/16 09:48:19;;;;;;;0.67;0.67;;;;;;;;;;5097986;28;20219;-80
2021/12/16 09:50:48;;;;;;;0.90;0.90;;;;;;;;;;5098007;28;20295;-79
2021/12/16 09:53:21;;;;;;;0.50;0.50;;;;;;;;;;5091016;28;20213;-80
2021/12/16 09:55:56;;;;;;;1.77;1.73;;;;;;;;;;5099830;28;20208;-80
2021/12/16 09:58:29;;;;;;;0.80;0.80;;;;;;;;;;5102076;28;20196;-82
2021/12/16 10:00:57;;;;;;;1.60;1.57;;;;;;;;;;5099543;28;20201;-82
2021/12/16 10:03:27;;;;;;;1.77;1.67;;;;;;;;;;5111206;28;20232;-80
2021/12/16 10:05:58;;;;;;;9.20;2.40;;;;;;;;;;5103520;28;20188;-82
2021/12/16 10:08:32;;;;;;;5.07;4.67;;;;;;;;;;5106025;28;20478;-81
2021/12/16 10:11:00;;;;;;;0.70;0.70;;;;;;;;;;5103186;28;20288;-81
2021/12/16 10:13:40;;;;;;;2.77;2.50;;;;;;;;;;5098848;28;20291;-82
2021/12/16 10:18:55;;;;;;;0.63;0.63;;;;;;;;;;5101049;28;20211;-80
2021/12/16 10:21:23;;;;;;;1.13;1.13;;;;;;;;;;5099265;28;20254;-79
2021/12/16 10:23:53;;;;;;;1.00;1.00;;;;;;;;;;5101269;28;20213;-80
2021/12/16 10:26:24;;;;;;;1.77;1.57;;;;;;;;;;5102617;28;20197;-81
2021/12/16 10:28:54;;;;;;;8.07;1.30;;;;;;;;;;5098809;28;20202;-79
2021/12/16 10:31:24;;;;;;;2.00;1.90;;;;;;;;;;5101489;28;20207;-80
2021/12/16 10:33:57;;;;;;;0.87;0.87;;;;;;;;;;5102340;28;20204;-80
2021/12/16 10:36:29;;;;;;;2.57;2.40;;;;;;;;;;5099882;28;20250;-79
2021/12/16 10:39:00;;;;;;;2.07;1.67;;;;;;;;;;5104631;28;20277;-80
2021/12/16 10:41:30;;;;;;;0.80;0.80;;;;;;;;;;5103200;28;20229;-80
2021/12/16 10:44:03;;;;;;;5.33;3.43;;;;;;;;;;5102848;28;20208;-80
2021/12/16 10:46:34;;;;;;;2.43;2.17;;;;;;;;;;5096770;28;20243;-79
2021/12/16 10:49:05;;;;;;;9.53;5.83;;;;;;;;;;5099071;28;20219;-82
2021/12/16 10:51:37;;;;;;;11.23;6.70;;;;;;;;;;5096381;28;20204;-78
2021/12/16 10:54:11;;;;;;;6.40;4.77;;;;;;;;;;5102787;28;20310;-76
2021/12/16 10:57:04;;;;;;;4.40;3.67;;;;;;;;;;5102572;28;20304;-77
2021/12/16 10:59:34;;;;;;;1.20;1.20;;;;;;;;;;5084397;28;20244;-78
2021/12/16 11:02:05;;;;;;;3.83;3.40;;;;;;;;;;5097613;28;20213;-80
2021/12/16 11:04:44;;;;;;;1.00;1.00;;;;;;;;;;5099227;28;20250;-80
2021/12/16 11:07:17;;;;;;;8.57;3.73;;;;;;;;;;5098099;28;20207;-81
2021/12/16 11:10:02;;;;;;;2.60;2.50;;;;;;;;;;5108553;28;20227;-81
2021/12/16 11:12:32;;;;;;;1.70;1.43;;;;;;;;;;5101653;28;20213;-81
2021/12/16 11:15:05;;;;;;;3.00;2.00;;;;;;;;;;5108554;28;20209;-80
2021/12/16 11:17:35;;;;;;;2.63;2.40;;;;;;;;;;5110035;28;20278;-81
2021/12/16 11:20:08;;;;;;;1.10;1.10;;;;;;;;;;5116514;28;20207;-81
2021/12/16 11:22:38;;;;;;;1.20;1.20;;;;;;;;;;5110925;28;20200;-81
2021/12/16 11:25:14;;;;;;;1.83;1.73;;;;;;;;;;5108741;28;20231;-80
2021/12/16 11:27:44;;;;;;;1.03;1.03;;;;;;;;;;5099025;28;20227;-82
2021/12/16 11:30:34;;;;;;;10.77;4.80;;;;;;;;;;5108941;28;20216;-80
2021/12/16 11:33:10;;;;;;;6.57;3.47;;;;;;;;;;5097451;28;20209;-80
2021/12/16 11:35:41;;;;;;;6.83;4.60;;;;;;;;;;5105543;28;20201;-79
2021/12/16 11:38:16;;;;;;;3.03;2.83;;;;;;;;;;5107966;28;20269;-79
2021/12/16 11:41:15;;;;;;;4.13;3.77;;;;;;;;;;5106288;28;20199;-80
2021/12/16 11:43:51;;;;;;;2.10;2.00;;;;;;;;;;5100831;28;20297;-80
2021/12/16 11:46:22;;;;;;;4.53;1.73;;;;;;;;;;5096858;28;20269;-80
2021/12/16 11:49:13;;;;;;;5.17;4.23;;;;;;;;;;5105266;28;20269;-80
2021/12/16 11:51:43;;;;;;;3.73;2.10;;;;;;;;;;5105329;27;20281;-80
2021/12/16 11:54:17;;;;;;;8.33;4.23;;;;;;;;;;5103104;28;20240;-80
2021/12/16 11:56:47;;;;;;;3.60;3.40;;;;;;;;;;5110944;28;20232;-80
2021/12/16 11:59:23;;;;;;;5.07;3.90;;;;;;;;;;5101344;28;20220;-80
2021/12/16 12:01:52;;;;;;;5.10;2.37;;;;;;;;;;5098181;28;20215;-80
2021/12/16 12:04:25;;;;;;;3.13;2.83;;;;;;;;;;5109739;28;20265;-81
2021/12/16 12:06:54;;;;;;;6.53;3.27;;;;;;;;;;5113173;28;20213;-81
2021/12/16 12:09:33;;;;;;;5.90;2.83;;;;;;;;;;5113946;28;20228;-81
2021/12/16 12:12:02;;;;;;;3.53;2.00;;;;;;;;;;5115549;28;20287;-80
2021/12/16 12:14:34;;;;;;;16.17;3.73;;;;;;;;;;5115293;28;20257;-81
2021/12/16 12:17:07;;;;;;;7.53;1.73;;;;;;;;;;5109871;28;20251;-80
2021/12/16 12:19:42;;;;;;;1.27;1.17;;;;;;;;;;5105459;28;20205;-81
2021/12/16 12:22:11;;;;;;;2.00;1.80;;;;;;;;;;5111483;28;20205;-81
2021/12/16 12:24:44;;;;;;;1.73;1.63;;;;;;;;;;5105075;28;20243;-80
2021/12/16 12:27:14;;;;;;;1.50;1.50;;;;;;;;;;5096961;28;20205;-81
2021/12/16 12:35:37;;;;;;;6.43;3.17;;;;;;;;;;5094882;28;20216;-82
2021/12/16 12:38:05;;;;;;;6.97;4.03;;;;;;;;;;5103164;28;20277;-82
2021/12/16 12:40:40;;;;;;;1.03;1.03;;;;;;;;;;5107460;28;20222;-82
2021/12/16 12:43:10;;;;;;;1.13;1.13;;;;;;;;;;5111140;28;20213;-81
2021/12/16 12:45:42;;;;;;;3.90;3.17;;;;;;;;;;5106746;28;20212;-81
2021/12/16 12:48:13;;;;;;;2.00;1.83;;;;;;;;;;5102649;28;20214;-81
2021/12/16 12:50:44;;;;;;;8.27;3.10;;;;;;;;;;5099991;28;20212;-82
2021/12/16 12:53:19;;;;;;;2.53;2.33;;;;;;;;;;5109092;28;20204;-82
2021/12/16 12:55:49;;;;;;;3.23;2.70;;;;;;;;;;5102741;28;20218;-82
2021/12/16 12:58:19;;;;;;;1.20;1.13;;;;;;;;;;5106719;28;20323;-82
2021/12/16 13:00:50;;;;;;;2.20;1.30;;;;;;;;;;5106440;28;20214;-83
2021/12/16 13:03:29;;;;;;;6.83;3.97;;;;;;;;;;5096111;28;20304;-82
2021/12/16 13:05:58;;;;;;;2.47;2.27;;;;;;;;;;5101355;28;20207;-82
2021/12/16 13:08:28;;;;;;;6.23;2.63;;;;;;;;;;5107736;28;20196;-82
2021/12/16 13:11:01;;;;;;;2.23;1.90;;;;;;;;;;5111691;28;20196;-82
2021/12/16 13:13:36;;;;;;;13.70;7.80;;;;;;;;;;5113123;28;20289;-81
2021/12/16 13:24:40;;;;;;;11.40;5.30;;;;;;;;;;5104568;28;20204;-81
2021/12/16 13:27:20;;;;;;;2.03;1.93;;;;;;;;;;5104467;27;20238;-81
2021/12/16 13:30:07;;;;;;;3.83;3.30;;;;;;;;;;5102674;28;20249;-82
2021/12/16 13:32:44;;;;;;;0.90;0.90;;;;;;;;;;5104254;28;20204;-81
2021/12/16 13:35:23;;;;;;;2.63;2.60;;;;;;;;;;5114864;28;20211;-81
2021/12/16 13:37:55;;;;;;;9.00;4.10;;;;;;;;;;5115042;28;20251;-81
2021/12/16 13:40:25;;;;;;;6.37;2.43;;;;;;;;;;5114596;28;20250;-80
2021/12/16 13:42:57;;;;;;;5.97;2.63;;;;;;;;;;5114702;28;20241;-81
2021/12/16 13:45:30;;;;;;;1.47;1.40;;;;;;;;;;5114823;28;20238;-81
2021/12/16 13:48:25;;;;;;;2.37;1.50;;;;;;;;;;5115112;28;20180;-81
2021/12/16 14:02:51;;;;;;;2.43;1.93;;;;;;;;;;5114385;28;20295;-81
2021/12/16 14:05:30;;;;;;;4.93;4.13;;;;;;;;;;5114402;28;20265;-81
2021/12/16 14:08:00;;;;;;;1.03;1.03;;;;;;;;;;5114782;28;20207;-81
2021/12/16 14:10:39;;;;;;;1.03;1.03;;;;;;;;;;5114357;28;20207;-81
2021/12/16 14:16:13;;;;;;;1.40;1.03;;;;;;;;;;5083559;28;20204;-81
2021/12/16 14:36:11;;;;;;;6.80;4.97;;;;;;;;;;5060391;28;20204;-81
2021/12/16 14:38:59;;;;;;;0.80;0.80;;;;;;;;;;5093495;28;20220;-81
2021/12/16 14:41:48;;;;;;;1.83;1.83;;;;;;;;;;5093798;28;20250;-81
2021/12/16 14:47:16;;;;;;;1.77;1.77;;;;;;;;;;5093969;28;20238;-81
2021/12/16 14:49:47;;;;;;;0.90;0.90;;;;;;;;;;5093791;28;20197;-81
2021/12/16 14:52:17;;;;;;;2.27;2.10;;;;;;;;;;5093833;28;20200;-81
2021/12/16 14:54:50;;;;;;;0.80;0.80;;;;;;;;;;5096926;28;20244;-81
2021/12/16 14:57:22;;;;;;;3.63;3.07;;;;;;;;;;5097888;28;20205;-83
2021/12/16 14:59:54;;;;;;;0.50;0.50;;;;;;;;;;5097743;28;20285;-84
2021/12/16 15:02:30;;;;;;;2.73;2.53;;;;;;;;;;5097776;28;20265;-83
2021/12/16 15:05:01;;;;;;;12.60;6.17;;;;;;;;;;5097839;28;20203;-83
2021/12/16 15:07:30;;;;;;;1.80;1.67;;;;;;;;;;5097636;28;20197;-83
2021/12/16 15:10:04;;;;;;;0.80;0.80;;;;;;;;;;5098067;28;20212;-83
2021/12/16 15:12:42;;;;;;;3.40;2.60;;;;;;;;;;5097783;28;20181;-83
2021/12/16 15:15:22;;;;;;;1.10;1.10;;;;;;;;;;5098154;28;20205;-83
2021/12/16 15:40:59;;;;;;;1.23;1.20;;;;;;;;;;5117488;28;20201;-83
2021/12/16 15:43:33;;;;;;;6.07;3.80;;;;;;;;;;5117773;28;20192;-83
2021/12/16 15:46:04;;;;;;;10.90;7.30;;;;;;;;;;5118302;28;20195;-83
2021/12/16 15:48:33;;;;;;;7.40;4.60;;;;;;;;;;5117698;28;20197;-83
2021/12/16 15:51:03;;;;;;;4.70;3.13;;;;;;;;;;5117110;28;20212;-83
2021/12/16 15:53:33;;;;;;;1.07;1.07;;;;;;;;;;5116715;28;20289;-83
2021/12/16 15:56:06;;;;;;;4.33;2.37;;;;;;;;;;5117383;28;20207;-83
2021/12/16 15:58:37;;;;;;;0.80;0.80;;;;;;;;;;5117609;28;20207;-83
2021/12/16 16:01:07;;;;;;;4.27;3.87;;;;;;;;;;5117013;28;20232;-83
2021/12/16 16:03:40;;;;;;;9.63;6.57;;;;;;;;;;5117156;28;20273;-84
2021/12/16 16:06:09;;;;;;;4.37;3.23;;;;;;;;;;5115698;28;20204;-82
2021/12/16 16:08:46;;;;;;;2.50;2.30;;;;;;;;;;5116906;28;20218;-83
2021/12/16 16:11:15;;;;;;;5.23;2.90;;;;;;;;;;5117281;28;20204;-83
2021/12/16 16:13:49;;;;;;;2.00;1.90;;;;;;;;;;5116851;28;20204;-83
2021/12/16 16:16:19;;;;;;;3.40;2.53;;;;;;;;;;5116912;28;20198;-83
2021/12/16 16:18:55;;;;;;;0.67;0.67;;;;;;;;;;5116770;28;20224;-83
2021/12/16 16:21:27;;;;;;;1.10;1.10;;;;;;;;;;5117118;28;20226;-83
2021/12/16 16:23:58;;;;;;;1.73;1.73;;;;;;;;;;5116341;28;20224;-83
2021/12/16 16:26:29;;;;;;;7.77;4.57;;;;;;;;;;5117024;28;20200;-83
2021/12/16 16:29:00;;;;;;;5.93;3.03;;;;;;;;;;5116449;28;20204;-86
2021/12/16 16:31:30;;;;;;;2.00;1.77;;;;;;;;;;5116795;28;20184;-85
2021/12/16 16:34:01;;;;;;;3.17;2.23;;;;;;;;;;5116034;28;20208;-85
2021/12/16 16:36:31;;;;;;;0.60;0.60;;;;;;;;;;5116514;28;20181;-85
2021/12/16 16:39:00;;;;;;;0.80;0.80;;;;;;;;;;5116137;28;20215;-85
2021/12/16 16:41:31;;;;;;;1.43;1.43;;;;;;;;;;5116143;28;20200;-86
2021/12/16 16:44:02;;;;;;;1.73;1.73;;;;;;;;;;5115846;28;20185;-85
2021/12/16 16:46:38;;;;;;;1.00;1.00;;;;;;;;;;5116202;28;20207;-85
2021/12/16 16:49:09;;;;;;;1.10;1.10;;;;;;;;;;5116438;28;20256;-85
2021/12/16 16:51:40;;;;;;;1.70;1.70;;;;;;;;;;5116305;28;20215;-85
2021/12/16 16:54:12;;;;;;;6.70;6.03;;;;;;;;;;5115805;27;20277;-85
2021/12/16 16:56:47;;;;;;;2.33;2.23;;;;;;;;;;5115891;28;20279;-85
2021/12/16 16:59:18;;;;;;;1.00;1.00;;;;;;;;;;5116181;28;20216;-85
2021/12/16 17:01:47;;;;;;;3.03;2.20;;;;;;;;;;5116023;28;20188;-85
2021/12/16 17:04:17;;;;;;;2.50;2.17;;;;;;;;;;5115832;28;20240;-85
2021/12/16 17:06:47;;;;;;;2.50;2.37;;;;;;;;;;5115848;28;20213;-85
2021/12/16 17:09:16;;;;;;;1.10;1.10;;;;;;;;;;5115511;28;20220;-85
2021/12/16 17:11:46;;;;;;;0.67;0.67;;;;;;;;;;5115805;28;20222;-85
2021/12/16 17:14:18;;;;;;;2.40;2.30;;;;;;;;;;5115841;28;20269;-85
2021/12/16 17:19:36;;;;;;;1.63;1.53;;;;;;;;;;5115180;28;20307;-85
2021/12/16 17:22:11;;;;;;;1.53;1.53;;;;;;;;;;5115241;28;20227;-85
2021/12/16 17:24:43;;;;;;;8.83;3.87;;;;;;;;;;5115316;28;20221;-85
2021/12/16 17:27:12;;;;;;;0.80;0.80;;;;;;;;;;5115443;28;20223;-85
2021/12/16 17:29:42;;;;;;;3.43;3.23;;;;;;;;;;5115545;28;20192;-85
2021/12/16 17:32:15;;;;;;;0.60;0.60;;;;;;;;;;5115282;28;20287;-85
2021/12/16 17:34:45;;;;;;;1.67;1.67;;;;;;;;;;5115578;28;20224;-85
2021/12/16 17:37:16;;;;;;;1.20;1.20;;;;;;;;;;5115442;28;20195;-85
2021/12/16 17:39:47;;;;;;;1.63;1.60;;;;;;;;;;5114864;28;20219;-85
2021/12/16 17:42:17;;;;;;;0.97;0.97;;;;;;;;;;5115594;28;20188;-85
2021/12/16 17:44:47;;;;;;;0.60;0.60;;;;;;;;;;5115104;28;20266;-85
2021/12/16 17:47:19;;;;;;;0.70;0.70;;;;;;;;;;5115084;28;20253;-85
2021/12/16 17:49:48;;;;;;;0.67;0.67;;;;;;;;;;5114930;28;20218;-85
2021/12/16 17:52:18;;;;;;;0.90;0.90;;;;;;;;;;5115131;28;20200;-85
2021/12/16 17:54:49;;;;;;;0.60;0.60;;;;;;;;;;5114605;28;20243;-85
2021/12/16 17:57:26;;;;;;;0.63;0.63;;;;;;;;;;5114710;28;20192;-85
2021/12/16 17:59:58;;;;;;;1.20;1.20;;;;;;;;;;5114485;28;20219;-85
2021/12/16 18:02:28;;;;;;;0.60;0.60;;;;;;;;;;5114723;28;20293;-85
2021/12/16 18:04:58;;;;;;;0.60;0.60;;;;;;;;;;5114784;28;20220;-85
2021/12/16 18:07:27;;;;;;;0.60;0.60;;;;;;;;;;5114810;28;20208;-85
2021/12/16 18:09:58;;;;;;;1.37;1.37;;;;;;;;;;5114679;28;20204;-85
2021/12/16 18:12:27;;;;;;;0.70;0.70;;;;;;;;;;5114699;28;20192;-85
2021/12/16 18:14:57;;;;;;;0.63;0.63;;;;;;;;;;5114166;27;20214;-85